Time;durP1;ratioP1;P1;durP2;ratioP2;P2;SDS_P1;SDS_P2;PMS_P1;PMS_P2;Temp;Humidity;BMP_temperature;BMP_pressure;BME280_temperature;BME280_humidity;BME280_pressure;Samples;Min_cycle;Max_cycle;Signal;HPM_P1;HPM_P2
2023/10/20 00:00:25;;;;;;;10.77;9.27;;;;;;;;;;5013705;28;20267;-72
2023/10/20 00:02:51;;;;;;;10.13;9.13;;;;;;;;;;5012250;28;20283;-72
2023/10/20 00:05:17;;;;;;;10.23;9.20;;;;;;;;;;5013661;28;20230;-70
2023/10/20 00:07:43;;;;;;;13.17;10.13;;;;;;;;;;5013977;28;20207;-72
2023/10/20 00:10:11;;;;;;;15.67;9.53;;;;;;;;;;5011828;28;20218;-71
2023/10/20 00:12:37;;;;;;;12.93;10.27;;;;;;;;;;5013809;28;20658;-72
2023/10/20 00:15:03;;;;;;;12.17;10.87;;;;;;;;;;5012580;28;20214;-72
2023/10/20 00:17:29;;;;;;;16.37;11.40;;;;;;;;;;5013479;28;20175;-72
2023/10/20 00:19:55;;;;;;;14.27;10.73;;;;;;;;;;5012457;28;20596;-72
2023/10/20 00:22:21;;;;;;;14.87;12.20;;;;;;;;;;5013295;28;20658;-72
2023/10/20 00:24:47;;;;;;;16.70;12.53;;;;;;;;;;5012092;28;20206;-71
2023/10/20 00:27:13;;;;;;;17.37;13.07;;;;;;;;;;5013370;28;20229;-72
2023/10/20 00:29:40;;;;;;;18.53;14.83;;;;;;;;;;5011955;28;20187;-71
2023/10/20 00:32:06;;;;;;;18.30;15.43;;;;;;;;;;5011983;28;20646;-71
2023/10/20 00:34:32;;;;;;;24.17;16.43;;;;;;;;;;5013154;28;20231;-72
2023/10/20 00:36:58;;;;;;;18.80;16.73;;;;;;;;;;5013244;28;20269;-72
2023/10/20 00:39:24;;;;;;;21.17;16.57;;;;;;;;;;5013236;28;20176;-72
2023/10/20 00:41:50;;;;;;;18.53;14.83;;;;;;;;;;5012472;28;20188;-72
2023/10/20 00:44:16;;;;;;;23.40;16.07;;;;;;;;;;5013539;28;20200;-72
2023/10/20 00:46:43;;;;;;;18.80;14.30;;;;;;;;;;5022334;28;20211;-73
2023/10/20 00:49:10;;;;;;;16.17;13.50;;;;;;;;;;5025090;28;20576;-72
2023/10/20 00:51:36;;;;;;;19.57;14.77;;;;;;;;;;5024028;28;20529;-71
2023/10/20 00:54:02;;;;;;;19.03;14.70;;;;;;;;;;5022043;28;20206;-72
2023/10/20 00:56:30;;;;;;;16.50;12.80;;;;;;;;;;5022744;28;20694;-73
2023/10/20 00:58:57;;;;;;;17.17;14.33;;;;;;;;;;5023708;28;20184;-72
2023/10/20 01:01:23;;;;;;;19.93;14.67;;;;;;;;;;5025006;28;20559;-72
2023/10/20 01:03:49;;;;;;;17.83;14.90;;;;;;;;;;5024562;28;20278;-72
2023/10/20 01:06:15;;;;;;;19.23;15.63;;;;;;;;;;5024578;28;20180;-71
2023/10/20 01:08:41;;;;;;;18.13;15.83;;;;;;;;;;5025830;28;20202;-72
2023/10/20 01:11:07;;;;;;;20.50;15.33;;;;;;;;;;5025293;28;20172;-72
2023/10/20 01:13:33;;;;;;;20.47;15.50;;;;;;;;;;5022893;28;20200;-71
2023/10/20 01:15:59;;;;;;;18.27;14.27;;;;;;;;;;5024990;28;20191;-72
2023/10/20 01:18:25;;;;;;;17.27;15.40;;;;;;;;;;5024403;28;20184;-72
2023/10/20 01:20:51;;;;;;;18.13;15.33;;;;;;;;;;5024709;28;20187;-72
2023/10/20 01:23:16;;;;;;;22.10;15.47;;;;;;;;;;5026806;28;20208;-72
2023/10/20 01:25:43;;;;;;;16.27;13.70;;;;;;;;;;5026258;28;20200;-73
2023/10/20 01:28:10;;;;;;;18.67;15.30;;;;;;;;;;5026197;28;20207;-72
2023/10/20 01:30:36;;;;;;;20.30;16.23;;;;;;;;;;5031223;28;20187;-72
2023/10/20 01:33:02;;;;;;;20.00;15.87;;;;;;;;;;5026729;28;20207;-72
2023/10/20 01:35:28;;;;;;;21.53;15.83;;;;;;;;;;5029645;28;20298;-72
2023/10/20 01:37:54;;;;;;;19.63;16.33;;;;;;;;;;5026680;28;20180;-71
2023/10/20 01:40:19;;;;;;;22.10;16.43;;;;;;;;;;5024704;28;20241;-71
2023/10/20 01:42:45;;;;;;;16.60;14.80;;;;;;;;;;5022500;28;20647;-71
2023/10/20 01:45:11;;;;;;;18.50;16.10;;;;;;;;;;5026203;28;20188;-71
2023/10/20 01:47:37;;;;;;;17.97;15.03;;;;;;;;;;5028580;28;20227;-71
2023/10/20 01:50:04;;;;;;;25.03;17.57;;;;;;;;;;5027481;28;20186;-71
2023/10/20 01:52:30;;;;;;;19.33;16.47;;;;;;;;;;5026811;28;20188;-71
2023/10/20 01:54:56;;;;;;;19.53;16.07;;;;;;;;;;5027469;28;20172;-71
2023/10/20 01:57:21;;;;;;;20.60;15.90;;;;;;;;;;5027062;28;20184;-72
2023/10/20 01:59:48;;;;;;;20.83;16.27;;;;;;;;;;5025168;28;20180;-72
2023/10/20 02:02:15;;;;;;;22.50;17.23;;;;;;;;;;5026188;28;20180;-72
2023/10/20 02:04:41;;;;;;;20.03;16.67;;;;;;;;;;5027094;28;20195;-71
2023/10/20 02:07:07;;;;;;;22.60;16.73;;;;;;;;;;5026344;28;20242;-71
2023/10/20 02:09:33;;;;;;;22.17;16.27;;;;;;;;;;5020031;28;20176;-71
2023/10/20 02:11:59;;;;;;;21.77;16.90;;;;;;;;;;5014930;28;20195;-71
2023/10/20 02:14:26;;;;;;;24.13;17.60;;;;;;;;;;5016673;28;20253;-71
2023/10/20 02:16:52;;;;;;;21.40;16.50;;;;;;;;;;5017448;28;20269;-71
2023/10/20 02:19:18;;;;;;;18.80;15.57;;;;;;;;;;5018076;28;20180;-71
2023/10/20 02:21:45;;;;;;;24.00;17.73;;;;;;;;;;5019947;28;20198;-71
2023/10/20 02:24:11;;;;;;;23.70;17.63;;;;;;;;;;5017548;28;20611;-71
2023/10/20 02:26:37;;;;;;;18.50;14.97;;;;;;;;;;5016016;28;20216;-71
2023/10/20 02:29:03;;;;;;;20.23;16.87;;;;;;;;;;5016676;28;20263;-71
2023/10/20 02:31:29;;;;;;;22.90;17.33;;;;;;;;;;5016218;28;20622;-71
2023/10/20 02:33:55;;;;;;;19.30;17.20;;;;;;;;;;5015664;28;20255;-71
2023/10/20 02:36:22;;;;;;;20.80;16.83;;;;;;;;;;5014842;28;20176;-71
2023/10/20 02:38:49;;;;;;;22.93;17.80;;;;;;;;;;5017773;28;20172;-71
2023/10/20 02:41:15;;;;;;;22.30;17.60;;;;;;;;;;5015559;28;20270;-71
2023/10/20 02:43:41;;;;;;;21.70;17.87;;;;;;;;;;5016098;28;20199;-70
2023/10/20 02:46:08;;;;;;;25.40;18.97;;;;;;;;;;5013867;28;20184;-70
2023/10/20 02:48:34;;;;;;;24.47;17.10;;;;;;;;;;5014876;28;20172;-70
2023/10/20 02:51:13;;;;;;;21.60;17.03;;;;;;;;;;5014555;28;20190;-70
2023/10/20 02:53:39;;;;;;;21.47;16.27;;;;;;;;;;5014512;28;20241;-72
2023/10/20 02:56:12;;;;;;;20.53;16.80;;;;;;;;;;5014488;28;20180;-70
2023/10/20 02:58:38;;;;;;;23.60;18.53;;;;;;;;;;5014460;28;20262;-70
2023/10/20 03:01:07;;;;;;;25.75;21.88;;;;;;;;;;5012074;28;20472;-71
2023/10/20 03:03:33;;;;;;;19.13;16.37;;;;;;;;;;5014719;28;20231;-70
2023/10/20 03:06:01;;;;;;;22.90;17.03;;;;;;;;;;5014807;28;20176;-70
2023/10/20 03:08:28;;;;;;;21.67;16.90;;;;;;;;;;5013035;28;20718;-70
2023/10/20 03:10:54;;;;;;;20.37;15.67;;;;;;;;;;5013270;28;20239;-70
2023/10/20 03:13:22;;;;;;;21.10;16.27;;;;;;;;;;5014607;28;20227;-71
2023/10/20 03:15:48;;;;;;;21.27;16.63;;;;;;;;;;5014385;28;20172;-72
2023/10/20 03:18:14;;;;;;;18.00;15.97;;;;;;;;;;5014490;28;20234;-71
2023/10/20 03:20:40;;;;;;;23.70;18.33;;;;;;;;;;5014410;28;20241;-70
2023/10/20 03:23:06;;;;;;;25.70;18.47;;;;;;;;;;5014550;28;20207;-71
2023/10/20 03:25:33;;;;;;;21.60;16.33;;;;;;;;;;5013108;28;20191;-71
2023/10/20 03:27:59;;;;;;;25.07;19.63;;;;;;;;;;5014261;28;20207;-71
2023/10/20 03:30:25;;;;;;;21.50;18.37;;;;;;;;;;5014049;28;20186;-70
2023/10/20 03:32:51;;;;;;;22.43;19.83;;;;;;;;;;5013913;28;20192;-70
2023/10/20 03:35:17;;;;;;;27.80;19.20;;;;;;;;;;5014361;28;20163;-71
2023/10/20 03:37:43;;;;;;;22.93;17.87;;;;;;;;;;5012772;28;20191;-71
2023/10/20 03:40:16;;;;;;;27.67;19.17;;;;;;;;;;5014013;28;20594;-71
2023/10/20 03:42:45;;;;;;;22.00;17.20;;;;;;;;;;5015174;28;20174;-70
2023/10/20 03:45:14;;;;;;;23.03;18.93;;;;;;;;;;5015244;28;20195;-71
2023/10/20 03:47:40;;;;;;;24.17;19.23;;;;;;;;;;5014749;28;20198;-70
2023/10/20 03:50:14;;;;;;;24.30;21.03;;;;;;;;;;5013161;28;20183;-70
2023/10/20 03:52:41;;;;;;;22.23;19.27;;;;;;;;;;5014087;28;20160;-70
2023/10/20 03:55:13;;;;;;;21.93;17.37;;;;;;;;;;5014011;28;20176;-71
2023/10/20 03:57:40;;;;;;;23.37;19.27;;;;;;;;;;5013873;28;20175;-70
2023/10/20 04:00:21;;;;;;;26.37;20.07;;;;;;;;;;5013737;28;20180;-70
2023/10/20 04:02:47;;;;;;;24.07;20.10;;;;;;;;;;5013952;28;20191;-71
2023/10/20 04:05:14;;;;;;;22.93;19.33;;;;;;;;;;5013597;28;20188;-71
2023/10/20 04:07:40;;;;;;;20.30;17.47;;;;;;;;;;5013620;28;20307;-70
2023/10/20 04:10:07;;;;;;;21.57;19.07;;;;;;;;;;5012378;28;20238;-70
2023/10/20 04:12:33;;;;;;;20.73;18.53;;;;;;;;;;5012304;28;20209;-71
2023/10/20 04:14:59;;;;;;;22.20;18.13;;;;;;;;;;5013671;28;20563;-70
2023/10/20 04:17:25;;;;;;;18.87;16.33;;;;;;;;;;5013557;28;20171;-71
2023/10/20 04:19:52;;;;;;;23.23;17.73;;;;;;;;;;5012355;28;20194;-70
2023/10/20 04:22:18;;;;;;;23.50;19.50;;;;;;;;;;5013471;28;20199;-70
2023/10/20 04:24:44;;;;;;;21.60;18.50;;;;;;;;;;5013484;28;20667;-70
2023/10/20 04:27:21;;;;;;;25.43;19.23;;;;;;;;;;5012302;28;20325;-70
2023/10/20 04:43:42;;;;;;;20.30;18.00;;;;;;;;;;5013426;28;20218;-71
2023/10/20 04:54:50;;;;;;;20.90;17.50;;;;;;;;;;5012998;28;20200;-71
2023/10/20 04:59:56;;;;;;;23.70;21.10;;;;;;;;;;5016119;28;20388;-71
2023/10/20 05:02:33;;;;;;;19.70;13.60;;;;;;;;;;5017050;28;20159;-71
2023/10/20 05:05:01;;;;;;;18.63;15.50;;;;;;;;;;5015628;28;20171;-71
2023/10/20 05:07:28;;;;;;;20.50;18.38;;;;;;;;;;5015355;28;20405;-71
2023/10/20 05:09:54;;;;;;;20.67;16.73;;;;;;;;;;5015397;28;20670;-71
2023/10/20 05:12:20;;;;;;;18.67;14.83;;;;;;;;;;5015291;28;20600;-71
2023/10/20 05:14:49;;;;;;;16.63;14.17;;;;;;;;;;5016398;28;20210;-71
2023/10/20 05:17:17;;;;;;;20.97;17.47;;;;;;;;;;5015080;28;20211;-71
2023/10/20 05:19:43;;;;;;;18.87;13.83;;;;;;;;;;5016891;28;20660;-71
2023/10/20 05:22:09;;;;;;;25.53;18.23;;;;;;;;;;5016743;28;20199;-70
2023/10/20 05:24:35;;;;;;;21.27;16.77;;;;;;;;;;5016096;28;20253;-71
2023/10/20 05:27:01;;;;;;;28.75;24.75;;;;;;;;;;5013695;28;20444;-71
2023/10/20 05:29:27;;;;;;;26.47;20.33;;;;;;;;;;5016170;28;20183;-71
2023/10/20 05:31:53;;;;;;;16.53;12.73;;;;;;;;;;5014755;28;20187;-71
2023/10/20 05:34:19;;;;;;;26.47;23.03;;;;;;;;;;5014491;28;20625;-70
2023/10/20 05:36:45;;;;;;;21.37;17.43;;;;;;;;;;5042055;22;20259;-70
2023/10/20 05:39:13;;;;;;;28.00;21.90;;;;;;;;;;5016754;28;20210;-70
2023/10/20 05:41:40;;;;;;;29.77;23.27;;;;;;;;;;5019483;28;20531;-70
2023/10/20 05:44:06;;;;;;;27.53;21.83;;;;;;;;;;5018157;28;20561;-70
2023/10/20 05:46:32;;;;;;;28.87;22.57;;;;;;;;;;5018213;28;20206;-70
2023/10/20 05:48:58;;;;;;;33.67;25.93;;;;;;;;;;5016852;28;20183;-70
2023/10/20 05:51:24;;;;;;;31.63;26.67;;;;;;;;;;5015881;28;20676;-70
2023/10/20 05:53:52;;;;;;;29.77;25.00;;;;;;;;;;5017553;28;20180;-71
2023/10/20 05:56:18;;;;;;;35.57;27.93;;;;;;;;;;5017564;28;20192;-71
2023/10/20 05:58:44;;;;;;;35.35;31.55;;;;;;;;;;5014293;28;20392;-70
2023/10/20 06:01:10;;;;;;;33.87;27.47;;;;;;;;;;5016606;28;20176;-70
2023/10/20 06:03:36;;;;;;;29.93;23.63;;;;;;;;;;5016658;28;20172;-70
2023/10/20 06:06:03;;;;;;;31.17;24.07;;;;;;;;;;5017152;28;20217;-70
2023/10/20 06:08:29;;;;;;;26.67;21.97;;;;;;;;;;5015966;28;20200;-70
2023/10/20 06:11:05;;;;;;;32.53;28.73;;;;;;;;;;5015103;28;20440;-71
2023/10/20 06:13:32;;;;;;;32.23;24.70;;;;;;;;;;5015294;28;20219;-71
2023/10/20 06:16:08;;;;;;;26.00;21.37;;;;;;;;;;5015001;28;20184;-71
2023/10/20 06:18:34;;;;;;;32.67;28.48;;;;;;;;;;5014288;28;20405;-71
2023/10/20 06:21:00;;;;;;;33.37;25.47;;;;;;;;;;5015952;28;20266;-70
2023/10/20 06:23:26;;;;;;;28.60;24.57;;;;;;;;;;5014804;28;20603;-70
2023/10/20 06:25:52;;;;;;;26.30;21.77;;;;;;;;;;5016753;28;20180;-70
2023/10/20 06:28:18;;;;;;;20.30;17.40;;;;;;;;;;5017421;28;20207;-70
2023/10/20 06:30:45;;;;;;;24.27;19.77;;;;;;;;;;5022461;28;20180;-71
2023/10/20 06:35:48;;;;;;;34.97;27.25;;;;;;;;;;5022236;28;20489;-71
2023/10/20 06:38:17;;;;;;;25.27;20.87;;;;;;;;;;5018514;28;20195;-72
2023/10/20 06:40:43;;;;;;;23.17;19.50;;;;;;;;;;5016743;28;20226;-70
2023/10/20 06:43:08;;;;;;;32.75;28.10;;;;;;;;;;5014537;28;20868;-70
2023/10/20 06:45:35;;;;;;;29.05;22.92;;;;;;;;;;5014331;28;20401;-71
2023/10/20 06:48:01;;;;;;;33.70;28.80;;;;;;;;;;5014247;28;20464;-70
2023/10/20 06:50:27;;;;;;;34.10;28.38;;;;;;;;;;5015320;28;20392;-70
2023/10/20 06:52:55;;;;;;;22.93;18.20;;;;;;;;;;5016929;28;20175;-70
2023/10/20 06:55:22;;;;;;;29.20;24.08;;;;;;;;;;5015144;28;20381;-71
2023/10/20 06:57:48;;;;;;;29.75;23.80;;;;;;;;;;5015167;28;20420;-71
2023/10/20 07:00:17;;;;;;;31.15;27.05;;;;;;;;;;5015491;28;20387;-70
2023/10/20 07:02:44;;;;;;;26.63;20.20;;;;;;;;;;5014833;28;20267;-70
2023/10/20 07:05:10;;;;;;;30.15;25.17;;;;;;;;;;5013725;28;20468;-70
2023/10/20 07:07:36;;;;;;;24.43;19.33;;;;;;;;;;5014590;28;20246;-71
2023/10/20 07:10:02;;;;;;;21.13;18.77;;;;;;;;;;5014973;28;20214;-71
2023/10/20 07:12:29;;;;;;;20.40;12.37;;;;;;;;;;5016658;28;20176;-71
2023/10/20 07:14:55;;;;;;;27.63;22.88;;;;;;;;;;5014055;28;20867;-70
2023/10/20 07:17:21;;;;;;;27.37;22.07;;;;;;;;;;5016697;28;20196;-70
2023/10/20 07:19:46;;;;;;;32.67;25.38;;;;;;;;;;5026843;28;20477;-71
2023/10/20 07:22:12;;;;;;;24.47;19.63;;;;;;;;;;5030669;28;20218;-71
2023/10/20 07:24:39;;;;;;;30.38;22.50;;;;;;;;;;5024665;28;20423;-70
2023/10/20 07:27:05;;;;;;;29.88;24.30;;;;;;;;;;5018428;28;20430;-70
2023/10/20 07:29:31;;;;;;;17.33;12.87;;;;;;;;;;5016744;28;20168;-70
2023/10/20 07:31:58;;;;;;;32.45;26.13;;;;;;;;;;5014296;28;20392;-70
2023/10/20 07:34:25;;;;;;;22.90;18.50;;;;;;;;;;5014218;28;20234;-70
2023/10/20 07:36:51;;;;;;;17.70;13.70;;;;;;;;;;5015518;28;20270;-71
2023/10/20 07:39:17;;;;;;;18.77;14.07;;;;;;;;;;5015133;28;20262;-70
2023/10/20 07:41:47;;;;;;;16.87;12.03;;;;;;;;;;5015097;28;20211;-71
2023/10/20 07:44:15;;;;;;;20.07;15.93;;;;;;;;;;5013843;28;20180;-70
2023/10/20 07:46:42;;;;;;;19.30;15.17;;;;;;;;;;5015292;28;20693;-70
2023/10/20 07:49:11;;;;;;;19.97;15.87;;;;;;;;;;5014117;28;20180;-70
2023/10/20 07:51:41;;;;;;;23.17;17.40;;;;;;;;;;5014956;28;20292;-70
2023/10/20 07:54:08;;;;;;;21.60;17.27;;;;;;;;;;5014332;28;20184;-70
2023/10/20 07:56:34;;;;;;;20.43;16.53;;;;;;;;;;5014799;28;20192;-70
2023/10/20 07:59:00;;;;;;;19.77;15.70;;;;;;;;;;5013522;28;20264;-70
2023/10/20 08:01:26;;;;;;;18.23;14.27;;;;;;;;;;5013615;28;20679;-70
2023/10/20 08:03:52;;;;;;;23.10;18.70;;;;;;;;;;5014072;28;20223;-70
2023/10/20 08:06:19;;;;;;;23.58;20.23;;;;;;;;;;5013827;28;20446;-70
2023/10/20 08:08:45;;;;;;;19.90;17.63;;;;;;;;;;5015259;28;20176;-70
2023/10/20 08:11:11;;;;;;;15.67;13.80;;;;;;;;;;5014626;28;20558;-70
2023/10/20 08:13:37;;;;;;;15.87;14.27;;;;;;;;;;5013765;28;20183;-70
2023/10/20 08:16:04;;;;;;;18.53;15.83;;;;;;;;;;5014883;28;20591;-70
2023/10/20 08:18:33;;;;;;;12.33;11.00;;;;;;;;;;5014775;28;20191;-71
2023/10/20 08:21:07;;;;;;;14.57;12.83;;;;;;;;;;5015476;28;20179;-70
2023/10/20 08:23:33;;;;;;;19.47;14.20;;;;;;;;;;5017196;28;20176;-70
2023/10/20 08:25:59;;;;;;;15.63;13.17;;;;;;;;;;5015233;28;20693;-70
2023/10/20 08:28:26;;;;;;;17.17;12.57;;;;;;;;;;5014027;28;20239;-70
2023/10/20 08:30:52;;;;;;;17.13;15.27;;;;;;;;;;5014652;28;20175;-69
2023/10/20 08:33:18;;;;;;;15.90;13.77;;;;;;;;;;5017956;28;20186;-69
2023/10/20 08:35:44;;;;;;;16.83;13.17;;;;;;;;;;5019065;28;20182;-69
2023/10/20 08:38:10;;;;;;;14.73;13.07;;;;;;;;;;5018863;28;20215;-69
2023/10/20 08:40:36;;;;;;;14.43;12.73;;;;;;;;;;5017571;28;20206;-70
2023/10/20 08:43:05;;;;;;;16.13;14.13;;;;;;;;;;5019739;28;20262;-69
2023/10/20 08:45:32;;;;;;;15.87;12.97;;;;;;;;;;5018556;28;20180;-71
2023/10/20 08:47:59;;;;;;;9.60;8.07;;;;;;;;;;5017809;28;20239;-70
2023/10/20 08:50:29;;;;;;;14.53;13.03;;;;;;;;;;5017386;28;20190;-70
2023/10/20 08:52:57;;;;;;;11.10;9.03;;;;;;;;;;5018880;28;20200;-70
2023/10/20 08:55:23;;;;;;;12.27;10.97;;;;;;;;;;5017656;28;20208;-70
2023/10/20 08:57:49;;;;;;;15.00;11.60;;;;;;;;;;5016765;28;20215;-71
2023/10/20 09:00:22;;;;;;;9.37;8.33;;;;;;;;;;5017856;28;20203;-70
2023/10/20 09:02:48;;;;;;;10.77;9.67;;;;;;;;;;5018049;28;20166;-70
2023/10/20 09:05:22;;;;;;;10.03;8.47;;;;;;;;;;5018173;28;20188;-70
2023/10/20 09:07:51;;;;;;;10.53;8.97;;;;;;;;;;5018146;28;20215;-70
2023/10/20 09:10:17;;;;;;;8.97;8.07;;;;;;;;;;5017713;28;20176;-70
2023/10/20 09:12:44;;;;;;;6.70;5.47;;;;;;;;;;5019665;28;20187;-69
2023/10/20 09:15:11;;;;;;;5.90;5.30;;;;;;;;;;5020995;28;20642;-69
2023/10/20 09:17:37;;;;;;;5.73;4.27;;;;;;;;;;5020169;28;20226;-70
2023/10/20 09:20:14;;;;;;;9.25;8.07;;;;;;;;;;5018024;28;20392;-69
2023/10/20 09:22:40;;;;;;;6.37;5.77;;;;;;;;;;5018523;28;20180;-70
2023/10/20 09:25:09;;;;;;;6.73;6.03;;;;;;;;;;5019417;28;20650;-70
2023/10/20 09:27:36;;;;;;;9.60;6.37;;;;;;;;;;5018441;28;20269;-69
2023/10/20 09:30:02;;;;;;;9.00;6.07;;;;;;;;;;5017957;28;20588;-69
2023/10/20 09:32:28;;;;;;;6.50;5.90;;;;;;;;;;5021923;28;20211;-71
2023/10/20 09:34:54;;;;;;;8.43;6.97;;;;;;;;;;5021989;28;20180;-70
2023/10/20 09:37:23;;;;;;;11.98;9.73;;;;;;;;;;5016667;28;20397;-70
2023/10/20 09:39:50;;;;;;;10.25;9.25;;;;;;;;;;5015397;28;20876;-70
2023/10/20 09:42:22;;;;;;;8.00;7.20;;;;;;;;;;5015615;28;20188;-70
2023/10/20 09:44:55;;;;;;;9.98;9.05;;;;;;;;;;5017271;28;20452;-70
2023/10/20 09:47:28;;;;;;;8.47;7.67;;;;;;;;;;5017610;28;20207;-70
2023/10/20 09:49:55;;;;;;;11.50;10.40;;;;;;;;;;5016964;28;20767;-69
2023/10/20 09:52:21;;;;;;;9.80;8.80;;;;;;;;;;5018626;28;20596;-70
2023/10/20 09:54:50;;;;;;;7.57;6.83;;;;;;;;;;5018147;28;20203;-70
2023/10/20 09:57:17;;;;;;;7.13;6.53;;;;;;;;;;5016288;28;20208;-70
2023/10/20 09:59:43;;;;;;;8.33;7.50;;;;;;;;;;5020486;28;20211;-69
2023/10/20 10:02:09;;;;;;;11.32;10.23;;;;;;;;;;5035681;28;20434;-70
2023/10/20 10:04:39;;;;;;;8.70;7.00;;;;;;;;;;5038291;28;20255;-70
2023/10/20 10:07:06;;;;;;;7.50;6.50;;;;;;;;;;5021351;28;20283;-69
2023/10/20 10:09:38;;;;;;;8.50;6.50;;;;;;;;;;5019299;28;20180;-70
2023/10/20 10:12:08;;;;;;;7.63;6.87;;;;;;;;;;5020819;28;20187;-70
2023/10/20 10:14:34;;;;;;;7.47;6.77;;;;;;;;;;5019151;28;20203;-69
2023/10/20 10:17:01;;;;;;;11.15;10.15;;;;;;;;;;5017824;28;20389;-71
2023/10/20 10:19:28;;;;;;;9.23;8.27;;;;;;;;;;5017053;28;20712;-70
2023/10/20 10:21:57;;;;;;;8.00;6.87;;;;;;;;;;5019671;28;20613;-70
2023/10/20 10:24:23;;;;;;;7.60;6.87;;;;;;;;;;5018279;28;20191;-69
2023/10/20 10:26:52;;;;;;;6.47;5.87;;;;;;;;;;5019185;28;20257;-69
2023/10/20 10:29:38;;;;;;;7.83;7.03;;;;;;;;;;5017822;28;20271;-70
2023/10/20 10:32:10;;;;;;;7.53;6.83;;;;;;;;;;5015928;28;20172;-69
2023/10/20 10:34:45;;;;;;;7.97;7.27;;;;;;;;;;5017018;28;20164;-69
2023/10/20 10:37:12;;;;;;;7.73;7.00;;;;;;;;;;5018056;28;20222;-69
2023/10/20 10:39:38;;;;;;;7.07;6.40;;;;;;;;;;5016049;28;20191;-70
2023/10/20 10:42:04;;;;;;;6.47;5.83;;;;;;;;;;5016666;28;20175;-70
2023/10/20 10:44:32;;;;;;;7.77;6.40;;;;;;;;;;5018276;28;20183;-70
2023/10/20 10:46:58;;;;;;;6.83;5.70;;;;;;;;;;5016669;28;20212;-70
2023/10/20 10:49:24;;;;;;;6.43;5.83;;;;;;;;;;5016625;28;20602;-70
2023/10/20 10:51:52;;;;;;;6.67;5.00;;;;;;;;;;5017049;28;20230;-70
2023/10/20 10:54:18;;;;;;;7.20;5.90;;;;;;;;;;5015955;28;20204;-69
2023/10/20 10:56:45;;;;;;;5.97;5.47;;;;;;;;;;5015527;28;20204;-70
2023/10/20 10:59:11;;;;;;;8.17;6.13;;;;;;;;;;5015370;28;20198;-70
2023/10/20 11:01:39;;;;;;;7.07;6.47;;;;;;;;;;5015182;28;20176;-70
2023/10/20 11:04:07;;;;;;;6.50;6.00;;;;;;;;;;5016749;28;20262;-70
2023/10/20 11:06:37;;;;;;;6.60;6.00;;;;;;;;;;5015808;28;20207;-70
2023/10/20 11:09:05;;;;;;;7.20;6.50;;;;;;;;;;5016433;28;20176;-70
2023/10/20 11:11:31;;;;;;;6.60;5.87;;;;;;;;;;5017363;28;20268;-69
2023/10/20 11:13:58;;;;;;;9.00;8.20;;;;;;;;;;5015244;28;20447;-70
2023/10/20 11:16:24;;;;;;;6.73;6.03;;;;;;;;;;5017343;28;20283;-70
2023/10/20 11:18:51;;;;;;;6.83;6.13;;;;;;;;;;5015010;28;20211;-70
2023/10/20 11:21:17;;;;;;;7.57;6.87;;;;;;;;;;5016818;28;20202;-70
2023/10/20 11:23:49;;;;;;;6.53;5.93;;;;;;;;;;5016945;28;20188;-70
2023/10/20 11:26:17;;;;;;;7.77;6.93;;;;;;;;;;5017300;28;20191;-69
2023/10/20 11:28:44;;;;;;;6.33;5.83;;;;;;;;;;5015744;28;20216;-69
2023/10/20 11:31:11;;;;;;;6.97;6.27;;;;;;;;;;5015177;28;20274;-69
2023/10/20 11:33:37;;;;;;;6.87;6.13;;;;;;;;;;5015638;28;20551;-69
2023/10/20 11:36:04;;;;;;;7.60;6.90;;;;;;;;;;5015875;28;20191;-69
2023/10/20 11:38:32;;;;;;;9.23;6.97;;;;;;;;;;5015641;28;20174;-70
2023/10/20 11:40:58;;;;;;;9.87;7.70;;;;;;;;;;5014591;28;20179;-69
2023/10/20 11:43:24;;;;;;;9.47;7.83;;;;;;;;;;5014817;28;20210;-69
2023/10/20 11:45:49;;;;;;;9.90;8.13;;;;;;;;;;5016088;28;20551;-69
2023/10/20 11:48:15;;;;;;;7.87;6.80;;;;;;;;;;5014265;28;20246;-69
2023/10/20 11:50:42;;;;;;;8.50;7.57;;;;;;;;;;5014381;28;20720;-69
2023/10/20 11:53:07;;;;;;;9.07;7.70;;;;;;;;;;5015570;28;20707;-69
2023/10/20 11:55:34;;;;;;;7.43;6.73;;;;;;;;;;5015316;28;20179;-69
2023/10/20 11:58:03;;;;;;;7.50;6.90;;;;;;;;;;5015532;28;20203;-70
2023/10/20 12:00:29;;;;;;;8.13;7.43;;;;;;;;;;5015245;28;20179;-69
2023/10/20 12:02:55;;;;;;;8.70;7.90;;;;;;;;;;5014350;28;20741;-69
2023/10/20 12:05:21;;;;;;;9.23;7.73;;;;;;;;;;5014816;28;20211;-70
2023/10/20 12:07:47;;;;;;;9.13;8.33;;;;;;;;;;5015067;28;20211;-70
2023/10/20 12:10:13;;;;;;;8.30;7.03;;;;;;;;;;5015522;28;20215;-70
2023/10/20 12:12:39;;;;;;;9.50;8.50;;;;;;;;;;5016734;28;20175;-71
2023/10/20 12:15:07;;;;;;;8.27;7.37;;;;;;;;;;5016618;28;20184;-70
2023/10/20 12:17:33;;;;;;;7.80;7.13;;;;;;;;;;5015716;28;20199;-70
2023/10/20 12:19:59;;;;;;;8.47;7.67;;;;;;;;;;5015769;28;20665;-70
2023/10/20 12:22:28;;;;;;;9.17;8.37;;;;;;;;;;5015445;28;20199;-70
2023/10/20 12:24:54;;;;;;;8.83;8.03;;;;;;;;;;5015744;28;20184;-70
2023/10/20 12:27:21;;;;;;;7.57;6.87;;;;;;;;;;5014403;28;20220;-72
2023/10/20 12:29:47;;;;;;;8.87;8.10;;;;;;;;;;5014559;28;20236;-70
2023/10/20 12:32:13;;;;;;;10.00;9.00;;;;;;;;;;5015770;28;20288;-71
2023/10/20 12:34:39;;;;;;;8.77;7.87;;;;;;;;;;5014220;28;20602;-70
2023/10/20 12:37:05;;;;;;;8.37;7.67;;;;;;;;;;5014039;28;20219;-70
2023/10/20 12:39:34;;;;;;;8.17;7.47;;;;;;;;;;5015180;28;20671;-70
2023/10/20 12:42:04;;;;;;;7.30;6.60;;;;;;;;;;5015561;28;20506;-71
2023/10/20 12:44:30;;;;;;;9.17;8.37;;;;;;;;;;5023548;28;20195;-71
2023/10/20 12:46:57;;;;;;;9.10;8.20;;;;;;;;;;5035233;28;20235;-71
2023/10/20 12:49:23;;;;;;;8.30;7.50;;;;;;;;;;5031107;28;20174;-71
2023/10/20 12:51:49;;;;;;;7.67;6.97;;;;;;;;;;5015250;28;20275;-70
2023/10/20 12:54:15;;;;;;;6.83;6.23;;;;;;;;;;5016261;28;20673;-70
2023/10/20 12:56:41;;;;;;;5.40;4.90;;;;;;;;;;5014443;28;20200;-70
2023/10/20 12:59:07;;;;;;;7.93;7.23;;;;;;;;;;5014399;28;20650;-70
2023/10/20 13:01:33;;;;;;;8.60;7.87;;;;;;;;;;5023303;28;20207;-71
2023/10/20 13:03:59;;;;;;;7.77;6.97;;;;;;;;;;5027175;28;20179;-70
2023/10/20 13:06:25;;;;;;;8.20;7.50;;;;;;;;;;5028258;28;20278;-70
2023/10/20 13:08:52;;;;;;;5.43;4.93;;;;;;;;;;5023065;28;20609;-70
2023/10/20 13:11:18;;;;;;;5.90;5.00;;;;;;;;;;5018367;28;20172;-70
2023/10/20 13:13:44;;;;;;;7.20;6.47;;;;;;;;;;5015725;28;20220;-70
2023/10/20 13:16:10;;;;;;;7.77;7.10;;;;;;;;;;5014015;28;20200;-70
2023/10/20 13:18:36;;;;;;;7.87;7.17;;;;;;;;;;5017717;28;20183;-70
2023/10/20 13:21:05;;;;;;;6.93;5.57;;;;;;;;;;5019163;28;20266;-71
2023/10/20 13:23:31;;;;;;;6.40;5.90;;;;;;;;;;5016805;28;20220;-69
2023/10/20 13:26:04;;;;;;;5.30;4.83;;;;;;;;;;5017690;28;20180;-70
2023/10/20 13:28:30;;;;;;;5.87;5.37;;;;;;;;;;5017021;28;20210;-70
2023/10/20 13:31:09;;;;;;;4.63;4.23;;;;;;;;;;5018808;28;20631;-70
2023/10/20 13:33:35;;;;;;;6.23;4.87;;;;;;;;;;5018340;28;20160;-72
2023/10/20 13:36:05;;;;;;;6.03;5.30;;;;;;;;;;5018200;28;20656;-70
2023/10/20 13:38:34;;;;;;;4.80;4.40;;;;;;;;;;5019186;28;20164;-71
2023/10/20 13:41:00;;;;;;;5.07;4.67;;;;;;;;;;5019011;28;20184;-70
2023/10/20 13:43:26;;;;;;;7.10;5.23;;;;;;;;;;5019545;28;20646;-71
2023/10/20 13:45:52;;;;;;;5.67;5.17;;;;;;;;;;5017152;28;20580;-70
2023/10/20 13:48:18;;;;;;;5.77;5.27;;;;;;;;;;5019478;28;20298;-70
2023/10/20 13:50:44;;;;;;;6.37;5.77;;;;;;;;;;5017575;28;20186;-71
2023/10/20 13:53:13;;;;;;;6.83;6.23;;;;;;;;;;5019178;28;20259;-70
2023/10/20 13:55:39;;;;;;;7.00;6.40;;;;;;;;;;5018252;28;20172;-70
2023/10/20 13:58:05;;;;;;;7.60;6.23;;;;;;;;;;5017571;28;20234;-70
2023/10/20 14:00:33;;;;;;;7.10;6.40;;;;;;;;;;5017210;28;20194;-70
2023/10/20 14:03:00;;;;;;;5.43;4.93;;;;;;;;;;5016636;28;20207;-70
2023/10/20 14:05:29;;;;;;;4.70;4.30;;;;;;;;;;5019607;28;20634;-70
2023/10/20 14:07:55;;;;;;;5.83;5.23;;;;;;;;;;5018957;28;20254;-70
2023/10/20 14:10:21;;;;;;;5.63;5.10;;;;;;;;;;5018355;28;20191;-70
2023/10/20 14:12:47;;;;;;;5.93;5.33;;;;;;;;;;5018665;28;20175;-70
2023/10/20 14:15:13;;;;;;;14.10;9.03;;;;;;;;;;5017411;28;20208;-71
2023/10/20 14:17:38;;;;;;;20.60;10.37;;;;;;;;;;5017762;28;20258;-72
2023/10/20 14:20:05;;;;;;;12.77;8.30;;;;;;;;;;5014992;28;20550;-72
2023/10/20 14:22:31;;;;;;;9.17;7.07;;;;;;;;;;5014450;28;20187;-71
2023/10/20 14:24:57;;;;;;;8.30;7.50;;;;;;;;;;5015554;28;20245;-71
2023/10/20 14:27:23;;;;;;;11.23;8.13;;;;;;;;;;5013904;28;20207;-71
2023/10/20 14:29:49;;;;;;;10.50;8.50;;;;;;;;;;5014951;28;20180;-72
2023/10/20 14:32:15;;;;;;;11.47;9.97;;;;;;;;;;5014174;28;20183;-71
2023/10/20 14:34:41;;;;;;;28.67;25.83;;;;;;;;;;5013845;28;20302;-71
2023/10/20 14:37:07;;;;;;;30.67;26.97;;;;;;;;;;5015112;28;20222;-71
2023/10/20 14:39:39;;;;;;;42.92;38.53;;;;;;;;;;5012692;28;20400;-71
2023/10/20 14:42:05;;;;;;;26.33;19.87;;;;;;;;;;5013840;28;20175;-70
2023/10/20 14:44:32;;;;;;;28.17;22.27;;;;;;;;;;5015375;28;20204;-71
2023/10/20 14:46:57;;;;;;;22.40;19.83;;;;;;;;;;5015235;28;20204;-70
2023/10/20 14:49:24;;;;;;;16.60;13.07;;;;;;;;;;5013808;28;20198;-70
2023/10/20 14:51:50;;;;;;;9.67;8.77;;;;;;;;;;5013883;28;20172;-70